Saint Nazianz, Wisconsin
Current Conditions -  °F | °C
As of 10:56 AM on Wednesday 26 Nov 2014 (Local Time) from KMTW Reporting Station
Overcast Overcast  
Wind Chill: 18°   Ceiling: 2100
Heat Index: 25°   Visibility: 10mi
Dew Point: 21°   Wind: 6mph
Humidity: 85%   Direction: 340°NNW
Pressure: 30.17"   Gusts: NA
Location:  44.01°N, 87.92°W
Report Text: KMTW 261656Z AUTO 34005KT 10SM OVC021 M04/M06 A3017 RMK AO2 SLP241 T10391061 FZRANO
Loading
Personal Weather Stations






























Interactive Weather Map New forecast layout! Learn more

10-Day Weather Forecast

Advertisements
Track Severe Weather on mobile